Terminal Aerodrome Forecast
Issued by NWS

Current Version | Previous Version | Graphics & Text | Print | Product List | Glossary On
Versions: 1 2 3 4 5 6 7 8 9 10 11 12 13 14 15 16 17
000
FTUS41 KILN 271700
TAFLCK
TAF
KLCK 271729Z 2718/2818 VRB04KT P6SM SCT080
     FM271900 36005KT P6SM SCT030
      TEMPO 2719/2722 BKN030
     FM280000 03004KT P6SM SCT250
     FM281000 VRB02KT 3SM BR SCT250
     FM281300 06003KT P6SM BKN250=

USA.gov is the U.S. government's official web portal to all federal, state and local government web resources and services.